Abbott, New Mexico
Current Conditions -  °F | °C
As of 2:53 AM on Sunday 23 Nov 2014 (Local Time) from KRTN Reporting Station
Clear Clear  
Wind Chill:   Ceiling: Unl
Heat Index:   Visibility: 10mi
Dew Point: -7°   Wind: 14mph
Humidity: 37%   Direction: 290°WNW
Pressure: 29.61"   Gusts: 30mph
Location:  36.3883°N, 104.381°W
Report Text: KRTN 230953Z AUTO 29012G26KT 10SM CLR 07/M07 A2961 RMK AO2 PK WND 28026/0948 SLP968 T00721067
Loading
Personal Weather Stations






























Interactive Weather Map New forecast layout! Learn more

10-Day Weather Forecast

Advertisements
Track Severe Weather on mobile